sensor_id;sensor_type;location;lat;lon;timestamp;P1;durP1;ratioP1;P2;durP2;ratioP2
39314;SDS011;28703;44.412;11.918;2024-03-02T00:02:19;11.98;;;7.60;;
39314;SDS011;28703;44.412;11.918;2024-03-02T00:04:45;11.27;;;7.90;;
39314;SDS011;28703;44.412;11.918;2024-03-02T00:07:10;9.55;;;7.50;;
39314;SDS011;28703;44.412;11.918;2024-03-02T00:09:39;11.30;;;7.40;;
39314;SDS011;28703;44.412;11.918;2024-03-02T00:12:05;9.30;;;7.97;;
39314;SDS011;28703;44.412;11.918;2024-03-02T00:14:31;9.43;;;7.50;;
39314;SDS011;28703;44.412;11.918;2024-03-02T00:16:57;8.68;;;7.38;;
39314;SDS011;28703;44.412;11.918;2024-03-02T00:19:24;12.90;;;8.52;;
39314;SDS011;28703;44.412;11.918;2024-03-02T00:21:50;13.90;;;7.65;;
39314;SDS011;28703;44.412;11.918;2024-03-02T00:26:54;7.80;;;7.07;;
39314;SDS011;28703;44.412;11.918;2024-03-02T00:29:20;8.70;;;7.05;;
39314;SDS011;28703;44.412;11.918;2024-03-02T00:31:46;7.35;;;6.75;;
39314;SDS011;28703;44.412;11.918;2024-03-02T00:34:13;7.97;;;7.20;;
39314;SDS011;28703;44.412;11.918;2024-03-02T00:36:41;8.38;;;7.43;;
39314;SDS011;28703;44.412;11.918;2024-03-02T00:39:07;8.02;;;7.25;;
39314;SDS011;28703;44.412;11.918;2024-03-02T00:41:33;7.80;;;6.93;;
39314;SDS011;28703;44.412;11.918;2024-03-02T00:44:09;8.23;;;7.32;;
39314;SDS011;28703;44.412;11.918;2024-03-02T00:46:38;9.55;;;8.13;;
39314;SDS011;28703;44.412;11.918;2024-03-02T00:49:05;8.48;;;6.72;;
39314;SDS011;28703;44.412;11.918;2024-03-02T00:51:37;9.07;;;7.40;;
39314;SDS011;28703;44.412;11.918;2024-03-02T00:54:05;10.13;;;7.50;;
39314;SDS011;28703;44.412;11.918;2024-03-02T00:56:32;11.27;;;8.25;;
39314;SDS011;28703;44.412;11.918;2024-03-02T00:59:00;8.52;;;7.10;;
39314;SDS011;28703;44.412;11.918;2024-03-02T01:01:25;8.60;;;7.80;;
39314;SDS011;28703;44.412;11.918;2024-03-02T01:03:51;7.13;;;6.53;;
39314;SDS011;28703;44.412;11.918;2024-03-02T01:06:17;9.93;;;7.10;;
39314;SDS011;28703;44.412;11.918;2024-03-02T01:08:44;8.52;;;7.32;;
39314;SDS011;28703;44.412;11.918;2024-03-02T01:11:10;9.45;;;7.32;;
39314;SDS011;28703;44.412;11.918;2024-03-02T01:13:36;8.02;;;7.22;;
39314;SDS011;28703;44.412;11.918;2024-03-02T01:16:02;8.98;;;7.65;;
39314;SDS011;28703;44.412;11.918;2024-03-02T01:18:29;8.23;;;7.43;;
39314;SDS011;28703;44.412;11.918;2024-03-02T01:20:56;9.40;;;8.50;;
39314;SDS011;28703;44.412;11.918;2024-03-02T01:23:22;14.52;;;8.70;;
39314;SDS011;28703;44.412;11.918;2024-03-02T01:25:48;10.82;;;8.00;;
39314;SDS011;28703;44.412;11.918;2024-03-02T01:28:15;9.93;;;8.52;;
39314;SDS011;28703;44.412;11.918;2024-03-02T01:30:40;10.52;;;8.20;;
39314;SDS011;28703;44.412;11.918;2024-03-02T01:33:06;9.82;;;7.18;;
39314;SDS011;28703;44.412;11.918;2024-03-02T01:35:32;8.32;;;7.53;;
39314;SDS011;28703;44.412;11.918;2024-03-02T01:38:00;11.25;;;9.05;;
39314;SDS011;28703;44.412;11.918;2024-03-02T01:40:26;9.02;;;8.23;;
39314;SDS011;28703;44.412;11.918;2024-03-02T01:42:52;7.97;;;7.28;;
39314;SDS011;28703;44.412;11.918;2024-03-02T01:47:49;8.73;;;7.93;;
39314;SDS011;28703;44.412;11.918;2024-03-02T01:50:16;8.30;;;6.82;;
39314;SDS011;28703;44.412;11.918;2024-03-02T01:52:50;10.73;;;7.68;;
39314;SDS011;28703;44.412;11.918;2024-03-02T01:55:16;7.32;;;6.65;;
39314;SDS011;28703;44.412;11.918;2024-03-02T01:57:41;7.50;;;6.78;;
39314;SDS011;28703;44.412;11.918;2024-03-02T02:00:10;9.68;;;6.97;;
39314;SDS011;28703;44.412;11.918;2024-03-02T02:02:39;7.03;;;6.43;;
39314;SDS011;28703;44.412;11.918;2024-03-02T02:05:05;7.88;;;6.82;;
39314;SDS011;28703;44.412;11.918;2024-03-02T02:07:31;6.97;;;6.28;;
39314;SDS011;28703;44.412;11.918;2024-03-02T02:09:57;8.15;;;6.13;;
39314;SDS011;28703;44.412;11.918;2024-03-02T02:12:23;6.90;;;6.22;;
39314;SDS011;28703;44.412;11.918;2024-03-02T02:14:49;8.05;;;6.00;;
39314;SDS011;28703;44.412;11.918;2024-03-02T02:17:15;9.50;;;6.00;;
39314;SDS011;28703;44.412;11.918;2024-03-02T02:19:41;6.10;;;5.60;;
39314;SDS011;28703;44.412;11.918;2024-03-02T02:22:08;5.97;;;5.50;;
39314;SDS011;28703;44.412;11.918;2024-03-02T02:24:35;8.25;;;6.10;;
39314;SDS011;28703;44.412;11.918;2024-03-02T02:27:00;6.18;;;5.68;;
39314;SDS011;28703;44.412;11.918;2024-03-02T02:29:26;8.18;;;5.82;;
39314;SDS011;28703;44.412;11.918;2024-03-02T02:31:52;7.72;;;5.65;;
39314;SDS011;28703;44.412;11.918;2024-03-02T02:34:17;8.80;;;5.43;;
39314;SDS011;28703;44.412;11.918;2024-03-02T02:36:43;9.23;;;6.25;;
39314;SDS011;28703;44.412;11.918;2024-03-02T02:39:10;6.78;;;6.18;;
39314;SDS011;28703;44.412;11.918;2024-03-02T02:41:39;7.13;;;6.43;;
39314;SDS011;28703;44.412;11.918;2024-03-02T02:44:05;8.00;;;6.47;;
39314;SDS011;28703;44.412;11.918;2024-03-02T02:46:31;7.30;;;6.68;;
39314;SDS011;28703;44.412;11.918;2024-03-02T02:48:57;7.68;;;6.47;;
39314;SDS011;28703;44.412;11.918;2024-03-02T02:51:22;6.78;;;6.07;;
39314;SDS011;28703;44.412;11.918;2024-03-02T02:53:50;6.97;;;6.32;;
39314;SDS011;28703;44.412;11.918;2024-03-02T02:56:16;8.82;;;6.65;;
39314;SDS011;28703;44.412;11.918;2024-03-02T02:58:42;6.70;;;6.10;;
39314;SDS011;28703;44.412;11.918;2024-03-02T03:01:08;8.35;;;6.63;;
39314;SDS011;28703;44.412;11.918;2024-03-02T03:03:34;6.85;;;6.25;;
39314;SDS011;28703;44.412;11.918;2024-03-02T03:05:59;6.32;;;5.82;;
39314;SDS011;28703;44.412;11.918;2024-03-02T03:08:25;8.50;;;6.38;;
39314;SDS011;28703;44.412;11.918;2024-03-02T03:10:51;7.50;;;5.78;;
39314;SDS011;28703;44.412;11.918;2024-03-02T03:13:17;7.55;;;6.72;;
39314;SDS011;28703;44.412;11.918;2024-03-02T03:15:42;7.22;;;5.95;;
39314;SDS011;28703;44.412;11.918;2024-03-02T03:18:08;7.97;;;6.30;;
39314;SDS011;28703;44.412;11.918;2024-03-02T03:20:35;7.15;;;6.47;;
39314;SDS011;28703;44.412;11.918;2024-03-02T03:23:01;7.30;;;6.57;;
39314;SDS011;28703;44.412;11.918;2024-03-02T03:25:29;7.47;;;6.45;;
39314;SDS011;28703;44.412;11.918;2024-03-02T03:27:55;8.30;;;6.50;;
39314;SDS011;28703;44.412;11.918;2024-03-02T03:30:21;7.40;;;6.70;;
39314;SDS011;28703;44.412;11.918;2024-03-02T03:32:46;8.32;;;6.30;;
39314;SDS011;28703;44.412;11.918;2024-03-02T03:35:13;7.70;;;6.80;;
39314;SDS011;28703;44.412;11.918;2024-03-02T03:37:43;8.75;;;6.25;;
39314;SDS011;28703;44.412;11.918;2024-03-02T03:40:09;6.80;;;6.10;;
39314;SDS011;28703;44.412;11.918;2024-03-02T03:42:36;13.30;;;7.60;;
39314;SDS011;28703;44.412;11.918;2024-03-02T03:45:02;8.57;;;7.70;;
39314;SDS011;28703;44.412;11.918;2024-03-02T03:47:28;7.10;;;6.50;;
39314;SDS011;28703;44.412;11.918;2024-03-02T03:49:54;7.72;;;7.03;;
39314;SDS011;28703;44.412;11.918;2024-03-02T03:52:20;7.00;;;6.40;;
39314;SDS011;28703;44.412;11.918;2024-03-02T03:54:46;7.00;;;6.32;;
39314;SDS011;28703;44.412;11.918;2024-03-02T03:57:12;9.85;;;7.35;;
39314;SDS011;28703;44.412;11.918;2024-03-02T03:59:37;7.20;;;6.60;;
39314;SDS011;28703;44.412;11.918;2024-03-02T04:02:03;10.25;;;6.88;;
39314;SDS011;28703;44.412;11.918;2024-03-02T04:04:29;7.82;;;6.38;;
39314;SDS011;28703;44.412;11.918;2024-03-02T04:06:55;7.50;;;6.80;;
39314;SDS011;28703;44.412;11.918;2024-03-02T04:09:21;8.43;;;6.80;;
39314;SDS011;28703;44.412;11.918;2024-03-02T04:11:47;7.57;;;6.80;;
39314;SDS011;28703;44.412;11.918;2024-03-02T04:14:12;8.43;;;7.15;;
39314;SDS011;28703;44.412;11.918;2024-03-02T04:16:38;8.38;;;7.50;;
39314;SDS011;28703;44.412;11.918;2024-03-02T04:19:04;8.27;;;7.47;;
39314;SDS011;28703;44.412;11.918;2024-03-02T04:21:30;8.30;;;7.50;;
39314;SDS011;28703;44.412;11.918;2024-03-02T04:23:56;7.38;;;6.75;;
39314;SDS011;28703;44.412;11.918;2024-03-02T04:26:25;7.07;;;6.38;;
39314;SDS011;28703;44.412;11.918;2024-03-02T04:28:51;6.70;;;6.10;;
39314;SDS011;28703;44.412;11.918;2024-03-02T04:31:20;8.35;;;5.40;;
39314;SDS011;28703;44.412;11.918;2024-03-02T04:33:46;7.28;;;6.57;;
39314;SDS011;28703;44.412;11.918;2024-03-02T04:36:12;6.65;;;5.82;;
39314;SDS011;28703;44.412;11.918;2024-03-02T04:38:38;6.25;;;5.63;;
39314;SDS011;28703;44.412;11.918;2024-03-02T04:41:04;8.63;;;6.10;;
39314;SDS011;28703;44.412;11.918;2024-03-02T04:43:33;8.00;;;5.97;;
39314;SDS011;28703;44.412;11.918;2024-03-02T04:46:00;8.35;;;5.22;;
39314;SDS011;28703;44.412;11.918;2024-03-02T04:48:26;6.90;;;6.30;;
39314;SDS011;28703;44.412;11.918;2024-03-02T04:50:52;5.88;;;5.40;;
39314;SDS011;28703;44.412;11.918;2024-03-02T04:53:17;12.27;;;5.93;;
39314;SDS011;28703;44.412;11.918;2024-03-02T04:55:43;6.03;;;5.45;;
39314;SDS011;28703;44.412;11.918;2024-03-02T04:58:09;5.55;;;5.05;;
39314;SDS011;28703;44.412;11.918;2024-03-02T05:00:35;8.50;;;5.15;;
39314;SDS011;28703;44.412;11.918;2024-03-02T05:03:01;6.50;;;5.30;;
39314;SDS011;28703;44.412;11.918;2024-03-02T05:05:27;6.20;;;5.60;;
39314;SDS011;28703;44.412;11.918;2024-03-02T05:07:53;6.55;;;5.50;;
39314;SDS011;28703;44.412;11.918;2024-03-02T05:10:18;6.03;;;5.43;;
39314;SDS011;28703;44.412;11.918;2024-03-02T05:12:44;6.35;;;5.75;;
39314;SDS011;28703;44.412;11.918;2024-03-02T05:15:10;5.82;;;5.28;;
39314;SDS011;28703;44.412;11.918;2024-03-02T05:17:39;10.93;;;5.90;;
39314;SDS011;28703;44.412;11.918;2024-03-02T05:20:08;7.40;;;5.45;;
39314;SDS011;28703;44.412;11.918;2024-03-02T05:22:34;6.57;;;6.07;;
39314;SDS011;28703;44.412;11.918;2024-03-02T05:25:01;6.40;;;5.85;;
39314;SDS011;28703;44.412;11.918;2024-03-02T05:27:28;6.75;;;6.20;;
39314;SDS011;28703;44.412;11.918;2024-03-02T05:29:54;7.15;;;6.07;;
39314;SDS011;28703;44.412;11.918;2024-03-02T05:32:20;8.02;;;6.93;;
39314;SDS011;28703;44.412;11.918;2024-03-02T05:34:45;9.05;;;8.15;;
39314;SDS011;28703;44.412;11.918;2024-03-02T05:37:11;19.58;;;13.40;;
39314;SDS011;28703;44.412;11.918;2024-03-02T05:39:37;18.98;;;16.05;;
39314;SDS011;28703;44.412;11.918;2024-03-02T05:42:03;14.60;;;11.98;;
39314;SDS011;28703;44.412;11.918;2024-03-02T05:44:29;14.90;;;10.43;;
39314;SDS011;28703;44.412;11.918;2024-03-02T05:46:55;13.43;;;10.80;;
39314;SDS011;28703;44.412;11.918;2024-03-02T05:49:21;11.93;;;10.32;;
39314;SDS011;28703;44.412;11.918;2024-03-02T05:51:47;12.18;;;10.95;;
39314;SDS011;28703;44.412;11.918;2024-03-02T05:54:13;15.90;;;11.05;;
39314;SDS011;28703;44.412;11.918;2024-03-02T05:56:38;12.07;;;9.80;;
39314;SDS011;28703;44.412;11.918;2024-03-02T05:59:04;12.25;;;9.40;;
39314;SDS011;28703;44.412;11.918;2024-03-02T06:01:41;9.48;;;8.48;;
39314;SDS011;28703;44.412;11.918;2024-03-02T06:04:08;12.75;;;8.00;;
39314;SDS011;28703;44.412;11.918;2024-03-02T06:06:34;9.95;;;8.95;;
39314;SDS011;28703;44.412;11.918;2024-03-02T06:09:00;9.63;;;8.55;;
39314;SDS011;28703;44.412;11.918;2024-03-02T06:11:27;9.63;;;8.73;;
39314;SDS011;28703;44.412;11.918;2024-03-02T06:13:53;9.30;;;8.40;;
39314;SDS011;28703;44.412;11.918;2024-03-02T06:16:19;9.07;;;7.60;;
39314;SDS011;28703;44.412;11.918;2024-03-02T06:18:45;7.82;;;7.05;;
39314;SDS011;28703;44.412;11.918;2024-03-02T06:21:10;8.07;;;7.28;;
39314;SDS011;28703;44.412;11.918;2024-03-02T06:23:36;10.15;;;7.10;;
39314;SDS011;28703;44.412;11.918;2024-03-02T06:26:02;9.85;;;8.10;;
39314;SDS011;28703;44.412;11.918;2024-03-02T06:28:28;8.07;;;7.35;;
39314;SDS011;28703;44.412;11.918;2024-03-02T06:30:54;8.60;;;7.72;;
39314;SDS011;28703;44.412;11.918;2024-03-02T06:33:20;9.43;;;7.50;;
39314;SDS011;28703;44.412;11.918;2024-03-02T06:35:45;9.45;;;8.38;;
39314;SDS011;28703;44.412;11.918;2024-03-02T06:38:11;12.60;;;8.38;;
39314;SDS011;28703;44.412;11.918;2024-03-02T06:40:37;11.05;;;7.90;;
39314;SDS011;28703;44.412;11.918;2024-03-02T06:43:04;8.50;;;7.80;;
39314;SDS011;28703;44.412;11.918;2024-03-02T06:45:30;9.35;;;8.50;;
39314;SDS011;28703;44.412;11.918;2024-03-02T06:47:56;8.30;;;7.60;;
39314;SDS011;28703;44.412;11.918;2024-03-02T06:50:22;9.90;;;8.93;;
39314;SDS011;28703;44.412;11.918;2024-03-02T06:52:47;9.13;;;8.32;;
39314;SDS011;28703;44.412;11.918;2024-03-02T06:55:13;12.13;;;8.13;;
39314;SDS011;28703;44.412;11.918;2024-03-02T06:57:39;10.02;;;8.10;;
39314;SDS011;28703;44.412;11.918;2024-03-02T07:00:05;8.85;;;7.95;;
39314;SDS011;28703;44.412;11.918;2024-03-02T07:02:34;9.05;;;8.25;;
39314;SDS011;28703;44.412;11.918;2024-03-02T07:05:01;11.75;;;8.07;;
39314;SDS011;28703;44.412;11.918;2024-03-02T07:07:27;7.95;;;6.97;;
39314;SDS011;28703;44.412;11.918;2024-03-02T07:09:53;10.18;;;7.80;;
39314;SDS011;28703;44.412;11.918;2024-03-02T07:12:18;8.18;;;7.47;;
39314;SDS011;28703;44.412;11.918;2024-03-02T07:14:44;10.38;;;7.68;;
39314;SDS011;28703;44.412;11.918;2024-03-02T07:17:28;10.52;;;7.95;;
39314;SDS011;28703;44.412;11.918;2024-03-02T07:19:54;11.32;;;8.07;;
39314;SDS011;28703;44.412;11.918;2024-03-02T07:22:20;10.45;;;7.95;;
39314;SDS011;28703;44.412;11.918;2024-03-02T07:24:46;9.20;;;8.40;;
39314;SDS011;28703;44.412;11.918;2024-03-02T07:27:12;9.45;;;8.20;;
39314;SDS011;28703;44.412;11.918;2024-03-02T07:29:39;9.45;;;8.50;;
39314;SDS011;28703;44.412;11.918;2024-03-02T07:32:05;9.40;;;8.45;;
39314;SDS011;28703;44.412;11.918;2024-03-02T07:34:33;10.50;;;8.98;;
39314;SDS011;28703;44.412;11.918;2024-03-02T07:36:59;10.55;;;9.50;;
39314;SDS011;28703;44.412;11.918;2024-03-02T07:39:25;9.70;;;8.75;;
39314;SDS011;28703;44.412;11.918;2024-03-02T07:41:51;10.10;;;9.20;;
39314;SDS011;28703;44.412;11.918;2024-03-02T07:44:17;10.10;;;9.20;;
39314;SDS011;28703;44.412;11.918;2024-03-02T07:46:46;9.43;;;8.63;;
39314;SDS011;28703;44.412;11.918;2024-03-02T07:49:15;9.88;;;8.93;;
39314;SDS011;28703;44.412;11.918;2024-03-02T07:51:41;9.52;;;8.63;;
39314;SDS011;28703;44.412;11.918;2024-03-02T07:54:07;10.40;;;8.05;;
39314;SDS011;28703;44.412;11.918;2024-03-02T07:56:34;9.20;;;8.40;;
39314;SDS011;28703;44.412;11.918;2024-03-02T07:59:00;8.10;;;7.40;;
39314;SDS011;28703;44.412;11.918;2024-03-02T08:01:30;13.95;;;8.18;;
39314;SDS011;28703;44.412;11.918;2024-03-02T08:04:00;9.27;;;7.95;;
39314;SDS011;28703;44.412;11.918;2024-03-02T08:06:28;7.60;;;6.90;;
39314;SDS011;28703;44.412;11.918;2024-03-02T08:08:54;13.57;;;12.10;;
39314;SDS011;28703;44.412;11.918;2024-03-02T08:11:21;12.48;;;11.18;;
39314;SDS011;28703;44.412;11.918;2024-03-02T08:13:47;10.55;;;9.55;;
39314;SDS011;28703;44.412;11.918;2024-03-02T08:16:14;11.85;;;8.07;;
39314;SDS011;28703;44.412;11.918;2024-03-02T08:18:47;16.77;;;8.18;;
39314;SDS011;28703;44.412;11.918;2024-03-02T08:21:14;8.93;;;7.78;;
39314;SDS011;28703;44.412;11.918;2024-03-02T08:23:40;7.45;;;6.22;;
39314;SDS011;28703;44.412;11.918;2024-03-02T08:26:07;8.35;;;6.13;;
39314;SDS011;28703;44.412;11.918;2024-03-02T08:28:36;7.00;;;6.30;;
39314;SDS011;28703;44.412;11.918;2024-03-02T08:31:05;6.38;;;5.78;;
39314;SDS011;28703;44.412;11.918;2024-03-02T08:33:32;5.80;;;5.35;;
39314;SDS011;28703;44.412;11.918;2024-03-02T08:35:58;6.15;;;5.30;;
39314;SDS011;28703;44.412;11.918;2024-03-02T08:38:24;6.65;;;5.65;;
39314;SDS011;28703;44.412;11.918;2024-03-02T08:40:50;8.32;;;5.05;;
39314;SDS011;28703;44.412;11.918;2024-03-02T08:43:16;7.57;;;5.40;;
39314;SDS011;28703;44.412;11.918;2024-03-02T08:45:42;6.35;;;5.60;;
39314;SDS011;28703;44.412;11.918;2024-03-02T08:48:08;6.45;;;5.10;;
39314;SDS011;28703;44.412;11.918;2024-03-02T08:50:34;6.93;;;6.32;;
39314;SDS011;28703;44.412;11.918;2024-03-02T08:53:00;7.25;;;5.80;;
39314;SDS011;28703;44.412;11.918;2024-03-02T08:55:26;6.70;;;4.80;;
39314;SDS011;28703;44.412;11.918;2024-03-02T08:57:52;5.88;;;5.22;;
39314;SDS011;28703;44.412;11.918;2024-03-02T09:00:18;8.73;;;4.78;;
39314;SDS011;28703;44.412;11.918;2024-03-02T09:02:44;6.85;;;5.68;;
39314;SDS011;28703;44.412;11.918;2024-03-02T09:05:10;12.77;;;6.18;;
39314;SDS011;28703;44.412;11.918;2024-03-02T09:07:36;7.22;;;6.03;;
39314;SDS011;28703;44.412;11.918;2024-03-02T09:10:04;5.60;;;5.20;;
39314;SDS011;28703;44.412;11.918;2024-03-02T09:12:31;6.25;;;4.75;;
39314;SDS011;28703;44.412;11.918;2024-03-02T09:14:57;6.72;;;5.30;;
39314;SDS011;28703;44.412;11.918;2024-03-02T09:17:24;8.20;;;5.63;;
39314;SDS011;28703;44.412;11.918;2024-03-02T09:19:49;8.95;;;5.28;;
39314;SDS011;28703;44.412;11.918;2024-03-02T09:22:18;4.93;;;4.43;;
39314;SDS011;28703;44.412;11.918;2024-03-02T09:24:44;6.50;;;5.05;;
39314;SDS011;28703;44.412;11.918;2024-03-02T09:27:10;5.57;;;4.78;;
39314;SDS011;28703;44.412;11.918;2024-03-02T09:29:36;6.53;;;4.40;;
39314;SDS011;28703;44.412;11.918;2024-03-02T09:32:02;4.63;;;4.32;;
39314;SDS011;28703;44.412;11.918;2024-03-02T09:34:27;5.30;;;4.90;;
39314;SDS011;28703;44.412;11.918;2024-03-02T09:36:53;4.90;;;4.50;;
39314;SDS011;28703;44.412;11.918;2024-03-02T09:39:19;4.65;;;4.10;;
39314;SDS011;28703;44.412;11.918;2024-03-02T09:41:45;7.75;;;4.20;;
39314;SDS011;28703;44.412;11.918;2024-03-02T09:44:12;3.80;;;3.50;;
39314;SDS011;28703;44.412;11.918;2024-03-02T09:46:38;4.22;;;3.22;;
39314;SDS011;28703;44.412;11.918;2024-03-02T09:49:03;2.85;;;2.58;;
39314;SDS011;28703;44.412;11.918;2024-03-02T09:51:30;2.92;;;2.63;;
39314;SDS011;28703;44.412;11.918;2024-03-02T09:53:56;2.72;;;2.47;;
39314;SDS011;28703;44.412;11.918;2024-03-02T09:56:22;2.60;;;2.35;;
39314;SDS011;28703;44.412;11.918;2024-03-02T09:58:48;2.50;;;2.30;;
39314;SDS011;28703;44.412;11.918;2024-03-02T10:01:14;2.28;;;2.10;;
39314;SDS011;28703;44.412;11.918;2024-03-02T10:03:40;3.40;;;2.22;;
39314;SDS011;28703;44.412;11.918;2024-03-02T10:06:24;2.55;;;2.17;;
39314;SDS011;28703;44.412;11.918;2024-03-02T10:08:51;3.97;;;2.85;;
39314;SDS011;28703;44.412;11.918;2024-03-02T10:11:31;3.35;;;2.60;;
39314;SDS011;28703;44.412;11.918;2024-03-02T10:16:35;2.22;;;2.10;;
39314;SDS011;28703;44.412;11.918;2024-03-02T10:19:18;2.80;;;2.00;;
39314;SDS011;28703;44.412;11.918;2024-03-02T10:21:46;2.08;;;1.92;;
39314;SDS011;28703;44.412;11.918;2024-03-02T10:24:12;2.25;;;2.13;;
39314;SDS011;28703;44.412;11.918;2024-03-02T10:26:38;2.20;;;2.00;;
39314;SDS011;28703;44.412;11.918;2024-03-02T10:29:04;1.77;;;1.67;;
39314;SDS011;28703;44.412;11.918;2024-03-02T10:31:30;2.03;;;1.90;;
39314;SDS011;28703;44.412;11.918;2024-03-02T10:33:57;1.40;;;1.30;;
39314;SDS011;28703;44.412;11.918;2024-03-02T10:36:23;1.98;;;1.52;;
39314;SDS011;28703;44.412;11.918;2024-03-02T10:38:51;1.88;;;1.77;;
39314;SDS011;28703;44.412;11.918;2024-03-02T10:41:22;2.03;;;1.88;;
39314;SDS011;28703;44.412;11.918;2024-03-02T10:43:49;1.88;;;1.63;;
39314;SDS011;28703;44.412;11.918;2024-03-02T10:46:20;2.88;;;1.83;;
39314;SDS011;28703;44.412;11.918;2024-03-02T10:48:48;1.88;;;1.70;;
39314;SDS011;28703;44.412;11.918;2024-03-02T10:51:14;2.05;;;1.95;;
39314;SDS011;28703;44.412;11.918;2024-03-02T10:53:40;3.95;;;1.95;;
39314;SDS011;28703;44.412;11.918;2024-03-02T10:56:07;4.20;;;2.20;;
39314;SDS011;28703;44.412;11.918;2024-03-02T10:58:34;2.53;;;1.40;;
39314;SDS011;28703;44.412;11.918;2024-03-02T11:01:02;1.35;;;1.27;;
39314;SDS011;28703;44.412;11.918;2024-03-02T11:03:33;1.65;;;1.55;;
39314;SDS011;28703;44.412;11.918;2024-03-02T11:06:00;1.70;;;1.60;;
39314;SDS011;28703;44.412;11.918;2024-03-02T11:08:31;1.10;;;1.00;;
39314;SDS011;28703;44.412;11.918;2024-03-02T11:11:12;2.67;;;1.20;;
39314;SDS011;28703;44.412;11.918;2024-03-02T11:13:42;1.20;;;1.20;;
39314;SDS011;28703;44.412;11.918;2024-03-02T11:16:33;1.10;;;1.10;;
39314;SDS011;28703;44.412;11.918;2024-03-02T11:19:04;2.03;;;0.90;;
39314;SDS011;28703;44.412;11.918;2024-03-02T11:21:34;1.35;;;1.15;;
39314;SDS011;28703;44.412;11.918;2024-03-02T11:24:00;1.38;;;1.27;;
39314;SDS011;28703;44.412;11.918;2024-03-02T11:26:46;1.42;;;1.27;;
39314;SDS011;28703;44.412;11.918;2024-03-02T11:32:06;1.92;;;1.70;;
39314;SDS011;28703;44.412;11.918;2024-03-02T11:34:49;1.75;;;1.60;;
39314;SDS011;28703;44.412;11.918;2024-03-02T11:37:16;3.30;;;1.50;;
39314;SDS011;28703;44.412;11.918;2024-03-02T11:39:44;1.50;;;1.40;;
39314;SDS011;28703;44.412;11.918;2024-03-02T11:42:13;1.58;;;1.48;;
39314;SDS011;28703;44.412;11.918;2024-03-02T11:44:41;1.92;;;1.83;;
39314;SDS011;28703;44.412;11.918;2024-03-02T11:47:10;1.60;;;1.50;;
39314;SDS011;28703;44.412;11.918;2024-03-02T11:52:09;3.75;;;2.38;;
39314;SDS011;28703;44.412;11.918;2024-03-02T11:54:39;1.85;;;1.75;;
39314;SDS011;28703;44.412;11.918;2024-03-02T11:57:12;3.92;;;1.80;;
39314;SDS011;28703;44.412;11.918;2024-03-02T11:59:42;2.03;;;1.83;;
39314;SDS011;28703;44.412;11.918;2024-03-02T12:02:12;1.83;;;1.65;;
39314;SDS011;28703;44.412;11.918;2024-03-02T12:04:41;3.40;;;1.70;;
39314;SDS011;28703;44.412;11.918;2024-03-02T12:07:08;1.95;;;1.65;;
39314;SDS011;28703;44.412;11.918;2024-03-02T12:09:34;1.17;;;1.17;;
39314;SDS011;28703;44.412;11.918;2024-03-02T12:12:07;1.50;;;1.40;;
39314;SDS011;28703;44.412;11.918;2024-03-02T12:14:35;1.73;;;1.63;;
39314;SDS011;28703;44.412;11.918;2024-03-02T12:17:02;1.60;;;1.50;;
39314;SDS011;28703;44.412;11.918;2024-03-02T12:19:29;2.20;;;1.73;;
39314;SDS011;28703;44.412;11.918;2024-03-02T12:21:56;1.50;;;1.40;;
39314;SDS011;28703;44.412;11.918;2024-03-02T12:24:22;2.20;;;1.40;;
39314;SDS011;28703;44.412;11.918;2024-03-02T12:26:50;2.80;;;1.60;;
39314;SDS011;28703;44.412;11.918;2024-03-02T12:29:16;3.28;;;1.58;;
39314;SDS011;28703;44.412;11.918;2024-03-02T12:31:53;1.33;;;1.30;;
39314;SDS011;28703;44.412;11.918;2024-03-02T12:34:19;1.63;;;1.52;;
39314;SDS011;28703;44.412;11.918;2024-03-02T12:36:47;4.50;;;1.40;;
39314;SDS011;28703;44.412;11.918;2024-03-02T12:39:15;3.83;;;1.40;;
39314;SDS011;28703;44.412;11.918;2024-03-02T12:41:45;3.58;;;1.50;;
39314;SDS011;28703;44.412;11.918;2024-03-02T12:44:11;2.25;;;1.25;;
39314;SDS011;28703;44.412;11.918;2024-03-02T12:46:37;2.65;;;2.08;;
39314;SDS011;28703;44.412;11.918;2024-03-02T12:49:10;3.30;;;2.17;;
39314;SDS011;28703;44.412;11.918;2024-03-02T12:51:38;9.50;;;4.45;;
39314;SDS011;28703;44.412;11.918;2024-03-02T12:54:08;15.55;;;5.85;;
39314;SDS011;28703;44.412;11.918;2024-03-02T12:56:36;9.18;;;3.67;;
39314;SDS011;28703;44.412;11.918;2024-03-02T12:59:03;3.60;;;2.20;;
39314;SDS011;28703;44.412;11.918;2024-03-02T13:01:30;2.30;;;1.90;;
39314;SDS011;28703;44.412;11.918;2024-03-02T13:03:57;3.30;;;1.88;;
39314;SDS011;28703;44.412;11.918;2024-03-02T13:06:24;2.30;;;2.10;;
39314;SDS011;28703;44.412;11.918;2024-03-02T13:08:54;4.50;;;1.90;;
39314;SDS011;28703;44.412;11.918;2024-03-02T13:11:20;5.75;;;2.85;;
39314;SDS011;28703;44.412;11.918;2024-03-02T13:13:50;298.17;;;16.33;;
39314;SDS011;28703;44.412;11.918;2024-03-02T13:16:16;91.40;;;7.43;;
39314;SDS011;28703;44.412;11.918;2024-03-02T13:18:44;130.88;;;9.00;;
39314;SDS011;28703;44.412;11.918;2024-03-02T13:21:10;19.40;;;2.78;;
39314;SDS011;28703;44.412;11.918;2024-03-02T13:23:36;16.17;;;3.25;;
39314;SDS011;28703;44.412;11.918;2024-03-02T13:26:01;2.55;;;2.33;;
39314;SDS011;28703;44.412;11.918;2024-03-02T13:28:27;7.03;;;1.92;;
39314;SDS011;28703;44.412;11.918;2024-03-02T13:30:53;10.80;;;2.92;;
39314;SDS011;28703;44.412;11.918;2024-03-02T13:33:19;4.60;;;2.20;;
39314;SDS011;28703;44.412;11.918;2024-03-02T13:35:48;7.13;;;2.85;;
39314;SDS011;28703;44.412;11.918;2024-03-02T13:38:17;2.65;;;2.17;;
39314;SDS011;28703;44.412;11.918;2024-03-02T13:40:44;1.98;;;1.75;;
39314;SDS011;28703;44.412;11.918;2024-03-02T13:43:10;3.65;;;1.67;;
39314;SDS011;28703;44.412;11.918;2024-03-02T13:45:37;1.40;;;1.30;;
39314;SDS011;28703;44.412;11.918;2024-03-02T13:48:03;3.90;;;1.77;;
39314;SDS011;28703;44.412;11.918;2024-03-02T13:50:30;1.95;;;1.42;;
39314;SDS011;28703;44.412;11.918;2024-03-02T13:52:55;3.72;;;1.60;;
39314;SDS011;28703;44.412;11.918;2024-03-02T13:55:22;4.60;;;1.73;;
39314;SDS011;28703;44.412;11.918;2024-03-02T13:57:48;2.10;;;1.90;;
39314;SDS011;28703;44.412;11.918;2024-03-02T14:00:15;3.25;;;1.83;;
39314;SDS011;28703;44.412;11.918;2024-03-02T14:02:42;1.90;;;1.58;;
39314;SDS011;28703;44.412;11.918;2024-03-02T14:05:08;2.60;;;1.65;;
39314;SDS011;28703;44.412;11.918;2024-03-02T14:07:40;2.42;;;1.50;;
39314;SDS011;28703;44.412;11.918;2024-03-02T14:10:06;2.03;;;1.83;;
39314;SDS011;28703;44.412;11.918;2024-03-02T14:12:32;2.42;;;1.50;;
39314;SDS011;28703;44.412;11.918;2024-03-02T14:14:58;1.33;;;1.23;;
39314;SDS011;28703;44.412;11.918;2024-03-02T14:17:27;2.50;;;1.58;;
39314;SDS011;28703;44.412;11.918;2024-03-02T14:19:53;2.35;;;1.70;;
39314;SDS011;28703;44.412;11.918;2024-03-02T14:22:22;2.63;;;1.85;;
39314;SDS011;28703;44.412;11.918;2024-03-02T14:24:47;2.00;;;1.67;;
39314;SDS011;28703;44.412;11.918;2024-03-02T14:27:14;4.65;;;1.38;;
39314;SDS011;28703;44.412;11.918;2024-03-02T14:29:41;5.22;;;1.50;;
39314;SDS011;28703;44.412;11.918;2024-03-02T14:32:07;3.55;;;1.40;;
39314;SDS011;28703;44.412;11.918;2024-03-02T14:34:33;2.33;;;1.60;;
39314;SDS011;28703;44.412;11.918;2024-03-02T14:36:59;2.38;;;1.60;;
39314;SDS011;28703;44.412;11.918;2024-03-02T14:39:25;2.97;;;1.95;;
39314;SDS011;28703;44.412;11.918;2024-03-02T14:41:51;2.45;;;1.50;;
39314;SDS011;28703;44.412;11.918;2024-03-02T14:44:17;4.55;;;1.35;;